createdAt,value
2018-01-14T00:00:21.206Z,1011.39
2018-01-14T00:01:02.097Z,1011.4
2018-01-14T00:01:42.418Z,1011.37
2018-01-14T00:03:45.298Z,1011.37
2018-01-14T00:04:22.395Z,1011.35
2018-01-14T00:05:02.790Z,1011.39
2018-01-14T00:05:43.355Z,1011.36
2018-01-14T00:06:23.826Z,1011.38
2018-01-14T00:07:04.356Z,1011.28
2018-01-14T00:07:44.746Z,1011.35
2018-01-14T00:09:37.218Z,1011.31
2018-01-14T00:10:18.439Z,1011.32
2018-01-14T00:10:58.851Z,1011.27
2018-01-14T00:11:40.068Z,1011.36
2018-01-14T00:12:20.497Z,1011.32
2018-01-14T00:13:00.846Z,1011.32
2018-01-14T00:13:41.263Z,1011.36
2018-01-14T00:14:21.609Z,1011.37
2018-01-14T00:15:02.381Z,1011.39
2018-01-14T00:15:42.524Z,1011.33
2018-01-14T00:16:22.920Z,1011.02
2018-01-14T00:17:03.405Z,1011.29
2018-01-14T00:17:43.810Z,1011.36
2018-01-14T00:19:56.650Z,1011.3
2018-01-14T00:20:36.921Z,1011.24
2018-01-14T00:21:17.328Z,1011.22
2018-01-14T00:21:57.746Z,1011.26
2018-01-14T00:22:38.222Z,1011.26
2018-01-14T00:24:57.929Z,1011.19
2018-01-14T00:25:38.363Z,1011.22
2018-01-14T00:26:18.858Z,1011.22
2018-01-14T00:26:59.272Z,1011.24
2018-01-14T00:27:40.297Z,1011.21
2018-01-14T00:28:20.405Z,1011.25
2018-01-14T00:29:00.824Z,1011.24
2018-01-14T00:29:41.239Z,1011.24
2018-01-14T00:30:21.870Z,1011.21
2018-01-14T00:31:02.293Z,1011.24
2018-01-14T00:31:42.847Z,1011.21
2018-01-14T00:32:23.373Z,1011.21
2018-01-14T00:33:03.767Z,1011.22
2018-01-14T00:33:44.300Z,1011.23
2018-01-14T00:34:25.219Z,1011.25
2018-01-14T00:35:05.587Z,1011.18
2018-01-14T00:35:45.987Z,1011.11
2018-01-14T00:36:26.367Z,1011.17
2018-01-14T00:37:07.235Z,1011.15
2018-01-14T00:37:47.634Z,1011.18
2018-01-14T00:38:28.350Z,1011.15
2018-01-14T00:39:08.646Z,1011.13
2018-01-14T00:39:49.056Z,1011.15
2018-01-14T00:40:29.512Z,1011.15
2018-01-14T00:41:09.930Z,1011.15
2018-01-14T00:41:50.676Z,1011.11
2018-01-14T00:42:31.172Z,1011.11
2018-01-14T00:43:11.628Z,1011.13
2018-01-14T00:43:52.007Z,1011.08
2018-01-14T00:44:32.441Z,1011.13
2018-01-14T00:45:12.823Z,1011.09
2018-01-14T00:45:53.181Z,1011.1
2018-01-14T00:46:33.567Z,1011.05
2018-01-14T00:47:13.970Z,1011.06
2018-01-14T00:47:54.385Z,1011.05
2018-01-14T00:50:24.570Z,1011.06
2018-01-14T00:51:04.904Z,1011.08
2018-01-14T00:51:45.326Z,1011.07
2018-01-14T00:52:25.710Z,1011.06
2018-01-14T00:53:06.164Z,1011.07
2018-01-14T00:53:49.243Z,1011.02
2018-01-14T00:54:31.557Z,1011.03
2018-01-14T00:55:12.238Z,1010.96
2018-01-14T00:55:52.697Z,1010.99
2018-01-14T00:56:33.135Z,1010.92
2018-01-14T00:57:16.575Z,1010.98
2018-01-14T00:57:56.971Z,1010.92
2018-01-14T00:58:37.344Z,1010.91
2018-01-14T00:59:19.810Z,1010.89
2018-01-14T01:00:00.446Z,1010.88
2018-01-14T01:00:40.679Z,1010.9
2018-01-14T01:01:21.005Z,1010.9
2018-01-14T01:02:01.381Z,1010.89
2018-01-14T01:02:41.758Z,1010.85
2018-01-14T01:03:22.528Z,1010.88
2018-01-14T01:04:02.926Z,1010.89
2018-01-14T01:04:43.308Z,1010.91
2018-01-14T01:05:23.813Z,1011.02
2018-01-14T01:06:04.225Z,1010.96
2018-01-14T01:06:44.602Z,1010.92
2018-01-14T01:07:25.070Z,1010.95
2018-01-14T01:08:07.117Z,1010.95
2018-01-14T01:10:12.822Z,1010.95
2018-01-14T01:11:05.262Z,1010.94
2018-01-14T01:11:58.028Z,1011.02
2018-01-14T01:12:51.103Z,1010.99
2018-01-14T01:13:45.189Z,1010.97
2018-01-14T01:14:37.168Z,1010.98
2018-01-14T01:15:30.222Z,1010.93
2018-01-14T01:16:23.250Z,1010.94
2018-01-14T01:17:15.221Z,1010.94
2018-01-14T01:18:07.379Z,1010.96
2018-01-14T01:19:01.718Z,1010.98
2018-01-14T01:19:54.280Z,1010.97
2018-01-14T01:20:46.877Z,1010.98
2018-01-14T01:21:39.533Z,1010.94
2018-01-14T01:22:32.682Z,1010.93
2018-01-14T01:23:24.588Z,1011.03
2018-01-14T01:24:17.147Z,1010.98
2018-01-14T01:25:16.166Z,1011.01
2018-01-14T01:26:09.480Z,1010.97
2018-01-14T01:27:01.876Z,1010.99
2018-01-14T01:27:55.626Z,1010.96
2018-01-14T01:28:49.156Z,1010.95
2018-01-14T01:29:41.904Z,1010.96
2018-01-14T01:30:34.577Z,1010.93
2018-01-14T01:31:25.121Z,1010.95
2018-01-14T01:32:05.296Z,1010.93
2018-01-14T01:32:45.790Z,1010.93
2018-01-14T01:33:27.224Z,1010.99
2018-01-14T01:34:07.911Z,1011.02
2018-01-14T01:34:49.292Z,1010.99
2018-01-14T01:35:30.552Z,1011
2018-01-14T01:36:11.639Z,1011.03
2018-01-14T01:36:52.308Z,1011.05
2018-01-14T01:37:33.329Z,1011.04
2018-01-14T01:38:14.002Z,1011.06
2018-01-14T01:38:54.352Z,1011.05
2018-01-14T01:39:34.672Z,1011.06
2018-01-14T01:40:15.316Z,1011.07
2018-01-14T01:40:55.637Z,1011.09
2018-01-14T01:41:36.133Z,1011.04
2018-01-14T01:42:18.015Z,1011.03
2018-01-14T01:43:02.289Z,1011.14
2018-01-14T01:43:42.042Z,1011.03
2018-01-14T01:44:23.695Z,1011.07
2018-01-14T01:45:04.322Z,1011.02
2018-01-14T01:45:44.898Z,1011.08
2018-01-14T01:46:25.191Z,1010.98
2018-01-14T01:47:06.291Z,1010.95
2018-01-14T01:47:46.875Z,1011.04
2018-01-14T01:48:27.962Z,1011.03
2018-01-14T01:49:11.786Z,1010.94
2018-01-14T01:49:52.417Z,1011.02
2018-01-14T01:50:33.189Z,1010.94
2018-01-14T01:51:16.501Z,1010.99
2018-01-14T01:51:57.083Z,1010.97
2018-01-14T01:52:38.898Z,1010.95
2018-01-14T01:53:20.377Z,1010.97
2018-01-14T01:54:00.926Z,1011.01
2018-01-14T01:54:42.133Z,1010.98
2018-01-14T01:55:22.852Z,1010.95
2018-01-14T01:56:03.652Z,1011.02
2018-01-14T01:56:45.189Z,1011.02
2018-01-14T01:57:25.941Z,1011.04
2018-01-14T01:58:06.113Z,1011
2018-01-14T01:58:48.631Z,1011.04
2018-01-14T01:59:29.259Z,1011.04
2018-01-14T02:00:09.812Z,1011.01
2018-01-14T02:02:12.210Z,1011.04
2018-01-14T02:02:52.659Z,1011.04
2018-01-14T02:03:33.059Z,1011.05
2018-01-14T02:04:13.688Z,1011.03
2018-01-14T02:04:54.053Z,1011.06
2018-01-14T02:05:34.421Z,1011.02
2018-01-14T02:06:14.812Z,1010.99
2018-01-14T02:06:55.252Z,1010.96
2018-01-14T02:07:35.659Z,1011
2018-01-14T02:08:16.161Z,1010.99
2018-01-14T02:08:56.809Z,1011.04
2018-01-14T02:09:36.966Z,1010.99
2018-01-14T02:10:17.354Z,1011.04
2018-01-14T02:10:58.887Z,1011.07
2018-01-14T02:11:39.291Z,1011.04
2018-01-14T02:12:19.632Z,1011.09
2018-01-14T02:13:00.099Z,1011.07
2018-01-14T02:13:40.434Z,1011.02
2018-01-14T02:14:37.335Z,1011.05
2018-01-14T02:15:20.295Z,1011.09
2018-01-14T02:16:00.761Z,1011.13
2018-01-14T02:16:41.228Z,1011.1
2018-01-14T02:17:22.459Z,1011.07
2018-01-14T02:18:03.614Z,1011.05
2018-01-14T02:18:44.986Z,1011.06
2018-01-14T02:19:25.411Z,1011.05
2018-01-14T02:20:05.780Z,1011.01
2018-01-14T02:20:46.224Z,1011.04
2018-01-14T02:21:26.555Z,1010.99
2018-01-14T02:22:06.952Z,1011.02
2018-01-14T02:22:47.325Z,1011.01
2018-01-14T02:23:27.745Z,1011.05
2018-01-14T02:24:08.201Z,1010.99
2018-01-14T02:24:48.563Z,1011.03
2018-01-14T02:25:28.954Z,1011
2018-01-14T02:26:09.470Z,1011.04
2018-01-14T02:26:49.795Z,1011.03
2018-01-14T02:27:30.714Z,1011
2018-01-14T02:28:11.040Z,1010.99
2018-01-14T02:28:51.541Z,1011.01
2018-01-14T02:29:32.050Z,1011.03
2018-01-14T02:30:12.331Z,1011.04
2018-01-14T02:30:52.838Z,1011.04
2018-01-14T02:31:33.223Z,1011.09
2018-01-14T02:32:13.638Z,1011.04
2018-01-14T02:32:54.652Z,1011.02
2018-01-14T02:33:34.693Z,1010.98
2018-01-14T02:34:15.104Z,1011.04
2018-01-14T02:34:55.493Z,1011.02
2018-01-14T02:35:35.975Z,1011.02
2018-01-14T02:36:16.373Z,1011.04
2018-01-14T02:36:57.478Z,1011
2018-01-14T02:37:37.920Z,1011.01
2018-01-14T02:38:18.300Z,1011
2018-01-14T02:38:58.711Z,1011.03
2018-01-14T02:39:39.396Z,1010.98
2018-01-14T02:40:19.998Z,1010.96
2018-01-14T02:41:00.379Z,1010.92
2018-01-14T02:41:40.820Z,1010.97
2018-01-14T02:42:22.239Z,1011
2018-01-14T02:43:02.679Z,1010.99
2018-01-14T02:43:44.023Z,1010.98
2018-01-14T02:44:24.424Z,1010.97
2018-01-14T02:45:04.826Z,1011
2018-01-14T02:45:45.213Z,1010.98
2018-01-14T02:46:25.627Z,1010.9
2018-01-14T02:47:06.017Z,1010.93
2018-01-14T02:47:46.389Z,1010.96
2018-01-14T02:48:26.789Z,1010.95
2018-01-14T02:49:07.202Z,1010.93
2018-01-14T02:49:47.589Z,1010.97
2018-01-14T02:50:29.720Z,1010.97
2018-01-14T02:51:10.154Z,1011
2018-01-14T02:51:50.571Z,1010.96
2018-01-14T02:52:31.079Z,1010.93
2018-01-14T02:53:12.109Z,1010.96
2018-01-14T02:53:52.483Z,1010.92
2018-01-14T02:54:32.883Z,1010.98
2018-01-14T02:55:13.321Z,1011
2018-01-14T02:55:53.696Z,1010.99
2018-01-14T02:56:34.136Z,1011.02
2018-01-14T02:57:14.714Z,1011.07
2018-01-14T02:57:55.015Z,1011.07
2018-01-14T02:58:36.123Z,1011.07
2018-01-14T02:59:16.388Z,1011.11
2018-01-14T02:59:56.841Z,1011.08
2018-01-14T03:00:37.305Z,1011.08
2018-01-14T03:01:17.645Z,1011.11
2018-01-14T03:01:57.979Z,1011.1
2018-01-14T03:02:38.383Z,1011.07
2018-01-14T03:03:18.762Z,1011.14
2018-01-14T03:03:59.171Z,1011.14
2018-01-14T03:04:39.513Z,1011.08
2018-01-14T03:05:19.921Z,1011.09
2018-01-14T03:06:00.459Z,1011.14
2018-01-14T03:06:40.893Z,1011.1
2018-01-14T03:07:21.248Z,1011.11
2018-01-14T03:08:01.680Z,1011.14
2018-01-14T03:08:42.147Z,1011.09
2018-01-14T03:09:22.581Z,1011.09
2018-01-14T03:10:03.012Z,1011.03
2018-01-14T03:10:43.384Z,1011.07
2018-01-14T03:11:23.888Z,1011.07
2018-01-14T03:12:04.205Z,1011.07
2018-01-14T03:12:44.637Z,1011.06
2018-01-14T03:13:25.014Z,1011.06
2018-01-14T03:14:05.400Z,1011.06
2018-01-14T03:14:45.778Z,1011.03
2018-01-14T03:15:26.293Z,1011.02
2018-01-14T03:16:06.583Z,1011.07
2018-01-14T03:16:46.973Z,1011.02
2018-01-14T03:17:27.444Z,1011.06
2018-01-14T03:18:07.784Z,1011.03
2018-01-14T03:18:48.208Z,1011.03
2018-01-14T03:19:28.581Z,1011.04
2018-01-14T03:20:09.449Z,1011.02
2018-01-14T03:20:49.646Z,1011.04
2018-01-14T03:21:30.243Z,1011.03
2018-01-14T03:22:10.809Z,1011.02
2018-01-14T03:22:51.032Z,1011.05
2018-01-14T03:23:31.470Z,1011.06
2018-01-14T03:24:11.840Z,1011.01
2018-01-14T03:24:52.254Z,1011.02
2018-01-14T03:25:32.682Z,1011
2018-01-14T03:26:13.129Z,1011.05
2018-01-14T03:26:54.334Z,1010.96
2018-01-14T03:27:34.772Z,1010.96
2018-01-14T03:28:15.286Z,1010.96
2018-01-14T03:28:55.626Z,1010.88
2018-01-14T03:29:35.952Z,1010.89
2018-01-14T03:30:17.980Z,1010.93
2018-01-14T03:30:58.417Z,1010.94
2018-01-14T03:31:39.730Z,1010.9
2018-01-14T03:32:20.207Z,1010.95
2018-01-14T03:33:00.568Z,1010.85
2018-01-14T03:33:41.092Z,1010.89
2018-01-14T03:34:21.576Z,1010.86
2018-01-14T03:35:01.938Z,1010.84
2018-01-14T03:35:42.370Z,1010.9
2018-01-14T03:36:22.860Z,1010.85
2018-01-14T03:37:03.250Z,1010.85
2018-01-14T03:37:43.699Z,1010.86
2018-01-14T03:38:24.118Z,1010.82
2018-01-14T03:39:05.391Z,1010.82
2018-01-14T03:39:45.740Z,1010.83
2018-01-14T03:40:26.172Z,1010.86
2018-01-14T03:41:06.540Z,1010.77
2018-01-14T03:41:46.926Z,1010.87
2018-01-14T03:42:27.306Z,1010.81
2018-01-14T03:43:07.739Z,1010.81
2018-01-14T03:43:49.183Z,1010.86
2018-01-14T03:44:29.416Z,1010.79
2018-01-14T03:45:09.854Z,1010.8
2018-01-14T03:45:50.171Z,1010.8
2018-01-14T03:46:30.640Z,1010.76
2018-01-14T03:47:11.034Z,1010.78
2018-01-14T03:47:52.338Z,1010.72
2018-01-14T03:48:32.760Z,1010.76
2018-01-14T03:49:13.150Z,1010.79
2018-01-14T03:49:53.620Z,1010.77
2018-01-14T03:50:33.999Z,1010.79
2018-01-14T03:51:15.271Z,1010.79
2018-01-14T03:51:56.036Z,1010.84
2018-01-14T03:52:36.018Z,1010.75
2018-01-14T03:53:16.388Z,1010.79
2018-01-14T03:53:56.832Z,1010.73
2018-01-14T03:54:37.227Z,1010.77
2018-01-14T03:55:17.592Z,1010.78
2018-01-14T03:55:58.042Z,1010.81
2018-01-14T03:56:38.371Z,1010.79
2018-01-14T03:57:18.781Z,1010.75
2018-01-14T03:57:59.167Z,1010.82
2018-01-14T03:58:40.697Z,1010.83
2018-01-14T03:59:20.964Z,1010.84
2018-01-14T04:00:01.324Z,1010.79
2018-01-14T04:00:43.073Z,1010.89
2018-01-14T04:01:23.465Z,1010.84
2018-01-14T04:41:46.318Z,1010.59
2018-01-14T04:42:26.725Z,1010.59
2018-01-14T04:43:07.384Z,1010.64
2018-01-14T04:43:47.715Z,1010.63
2018-01-14T04:44:28.106Z,1010.59
2018-01-14T04:45:08.526Z,1010.6
2018-01-14T04:45:48.997Z,1010.6
2018-01-14T04:46:29.596Z,1010.6
2018-01-14T04:47:09.987Z,1010.65
2018-01-14T04:47:50.402Z,1010.62
2018-01-14T04:48:30.781Z,1010.7
2018-01-14T04:49:11.151Z,1010.64
2018-01-14T04:49:51.633Z,1010.67
2018-01-14T04:50:31.961Z,1010.71
2018-01-14T04:51:12.454Z,1010.64
2018-01-14T04:51:52.825Z,1010.66
2018-01-14T04:52:33.240Z,1010.66
2018-01-14T04:53:13.623Z,1010.63
2018-01-14T04:53:54.043Z,1010.64
2018-01-14T04:54:34.429Z,1010.58
2018-01-14T04:55:14.856Z,1010.58
2018-01-14T04:55:55.252Z,1010.58
2018-01-14T04:56:35.657Z,1010.62
2018-01-14T04:57:16.026Z,1010.6
2018-01-14T04:57:56.460Z,1010.57
2018-01-14T04:58:37.136Z,1010.6
2018-01-14T04:59:17.490Z,1010.64
2018-01-14T04:59:57.932Z,1010.57
2018-01-14T05:00:38.404Z,1010.58
2018-01-14T05:01:18.657Z,1010.58
2018-01-14T05:01:59.070Z,1010.61
2018-01-14T05:02:39.560Z,1010.57
2018-01-14T05:03:19.975Z,1010.52
2018-01-14T05:04:00.448Z,1010.51
2018-01-14T05:04:40.892Z,1010.67
2018-01-14T05:05:21.222Z,1010.6
2018-01-14T05:06:01.657Z,1010.63
2018-01-14T05:06:42.087Z,1010.61
2018-01-14T05:07:22.458Z,1010.62
2018-01-14T05:08:02.838Z,1010.63
2018-01-14T05:08:43.220Z,1010.65
2018-01-14T05:09:23.658Z,1010.67
2018-01-14T05:10:04.099Z,1010.67
2018-01-14T05:10:44.428Z,1010.61
2018-01-14T05:11:24.950Z,1010.67
2018-01-14T05:12:05.602Z,1010.67
2018-01-14T05:12:45.775Z,1010.68
2018-01-14T05:13:26.283Z,1010.69
2018-01-14T05:14:06.652Z,1010.69
2018-01-14T05:14:47.020Z,1010.68
2018-01-14T05:15:27.454Z,1010.64
2018-01-14T05:16:07.963Z,1010.68
2018-01-14T05:16:48.332Z,1010.69
2018-01-14T05:17:28.736Z,1010.67
2018-01-14T05:18:09.155Z,1010.66
2018-01-14T05:18:49.572Z,1010.65
2018-01-14T05:19:30.005Z,1010.68
2018-01-14T05:20:10.371Z,1010.68
2018-01-14T05:20:50.785Z,1010.73
2018-01-14T05:21:31.630Z,1010.78
2018-01-14T05:22:12.007Z,1010.68
2018-01-14T05:22:52.431Z,1010.74
2018-01-14T05:23:32.863Z,1010.68
2018-01-14T05:24:13.227Z,1010.67
2018-01-14T05:24:53.664Z,1010.72
2018-01-14T05:25:34.038Z,1010.73
2018-01-14T05:26:14.557Z,1010.68
2018-01-14T05:26:54.925Z,1010.74
2018-01-14T05:27:35.296Z,1010.73
2018-01-14T05:28:15.654Z,1010.77
2018-01-14T05:28:56.037Z,1010.69
2018-01-14T05:29:36.400Z,1010.77
2018-01-14T05:30:16.872Z,1010.81
2018-01-14T05:30:57.534Z,1010.73
2018-01-14T05:31:37.643Z,1010.75
2018-01-14T05:35:04.956Z,1010.76
2018-01-14T05:35:45.426Z,1010.83
2018-01-14T05:36:25.736Z,1010.77
2018-01-14T05:37:06.085Z,1010.77
2018-01-14T05:37:46.520Z,1010.79
2018-01-14T05:38:26.908Z,1010.8
2018-01-14T05:39:07.387Z,1010.79
2018-01-14T05:39:47.888Z,1010.85
2018-01-14T05:40:28.218Z,1010.88
2018-01-14T05:41:08.651Z,1010.83
2018-01-14T05:41:49.163Z,1010.88
2018-01-14T05:42:29.551Z,1010.89
2018-01-14T05:43:09.965Z,1010.89
2018-01-14T05:43:50.562Z,1010.89
2018-01-14T05:44:31.029Z,1010.91
2018-01-14T05:45:11.362Z,1010.91
2018-01-14T05:45:51.769Z,1010.9
2018-01-14T05:46:32.416Z,1010.91
2018-01-14T05:47:12.759Z,1010.86
2018-01-14T05:47:53.154Z,1010.92
2018-01-14T05:48:33.548Z,1010.92
2018-01-14T05:49:13.941Z,1010.95
2018-01-14T05:49:54.294Z,1010.89
2018-01-14T05:50:35.093Z,1010.88
2018-01-14T05:51:15.583Z,1010.89
2018-01-14T05:51:56.132Z,1010.89
2018-01-14T05:52:36.510Z,1010.88
2018-01-14T05:53:16.946Z,1010.89
2018-01-14T05:53:57.672Z,1010.85
2018-01-14T05:54:37.961Z,1010.87
2018-01-14T05:55:18.338Z,1010.88
2018-01-14T05:55:58.713Z,1010.83
2018-01-14T05:56:39.095Z,1010.85
2018-01-14T05:57:19.515Z,1010.82
2018-01-14T05:57:59.951Z,1010.86
2018-01-14T05:58:40.318Z,1010.79
2018-01-14T05:59:20.975Z,1010.82
2018-01-14T06:00:01.358Z,1010.74
2018-01-14T06:00:41.773Z,1010.86
2018-01-14T06:01:22.177Z,1010.82
2018-01-14T06:02:02.708Z,1010.79
2018-01-14T06:02:43.368Z,1010.78
2018-01-14T06:03:23.548Z,1010.78
2018-01-14T06:04:04.169Z,1010.8
2018-01-14T06:04:44.512Z,1010.77
2018-01-14T06:05:24.880Z,1010.72
2018-01-14T06:06:05.281Z,1010.76
2018-01-14T06:06:45.799Z,1010.76
2018-01-14T06:07:26.122Z,1010.78
2018-01-14T06:08:06.908Z,1010.87
2018-01-14T06:08:47.202Z,1010.93
2018-01-14T06:09:27.587Z,1010.84
2018-01-14T06:10:08.309Z,1010.8
2018-01-14T06:10:48.687Z,1010.78
2018-01-14T06:11:29.170Z,1010.77
2018-01-14T06:12:09.936Z,1010.78
2018-01-14T06:12:50.319Z,1010.78
2018-01-14T06:13:30.712Z,1010.84
2018-01-14T06:14:11.186Z,1010.76
2018-01-14T06:14:51.675Z,1010.75
2018-01-14T06:15:32.105Z,1010.7
2018-01-14T06:16:12.423Z,1010.68
2018-01-14T06:16:52.778Z,1010.75
2018-01-14T06:17:33.179Z,1010.72
2018-01-14T06:18:13.623Z,1010.68
2018-01-14T06:18:54.023Z,1010.73
2018-01-14T06:19:34.420Z,1010.71
2018-01-14T06:20:15.009Z,1010.69
2018-01-14T06:20:55.765Z,1010.73
2018-01-14T06:21:36.147Z,1010.83
2018-01-14T06:22:16.562Z,1010.73
2018-01-14T06:22:56.962Z,1010.69
2018-01-14T06:23:37.462Z,1010.72
2018-01-14T06:24:17.971Z,1010.75
2018-01-14T06:24:58.258Z,1010.78
2018-01-14T06:25:38.673Z,1010.73
2018-01-14T06:26:19.090Z,1010.74
2018-01-14T06:26:59.491Z,1010.75
2018-01-14T06:27:40.051Z,1010.73
2018-01-14T06:28:20.525Z,1010.77
2018-01-14T06:29:00.882Z,1010.78
2018-01-14T06:29:41.418Z,1010.8
2018-01-14T06:30:21.722Z,1010.76
2018-01-14T06:32:15.094Z,1010.79
2018-01-14T06:32:56.201Z,1010.89
2018-01-14T06:33:36.799Z,1010.81
2018-01-14T06:34:17.393Z,1010.8
2018-01-14T06:34:57.851Z,1010.84
2018-01-14T06:35:38.287Z,1010.88
2018-01-14T06:36:18.682Z,1010.9
2018-01-14T06:36:59.262Z,1011.02
2018-01-14T06:39:17.026Z,1010.85
2018-01-14T06:40:00.155Z,1010.85
2018-01-14T06:40:40.934Z,1010.84
2018-01-14T06:41:21.300Z,1010.81
2018-01-14T06:42:01.904Z,1010.89
2018-01-14T06:42:42.108Z,1010.87
2018-01-14T06:43:22.537Z,1010.83
2018-01-14T06:44:03.362Z,1010.78
2018-01-14T06:44:43.788Z,1010.81
2018-01-14T06:45:24.202Z,1010.82
2018-01-14T06:46:04.527Z,1010.8
2018-01-14T06:46:44.884Z,1010.78
2018-01-14T06:47:25.312Z,1010.8
2018-01-14T06:48:05.695Z,1010.8
2018-01-14T06:48:46.067Z,1010.8
2018-01-14T06:49:26.594Z,1010.8
2018-01-14T06:50:06.876Z,1010.76
2018-01-14T06:50:47.261Z,1010.78
2018-01-14T06:51:27.880Z,1010.79
2018-01-14T06:52:08.274Z,1010.76
2018-01-14T06:52:49.325Z,1010.78
2018-01-14T06:53:29.374Z,1010.86
2018-01-14T06:54:09.800Z,1010.8
2018-01-14T06:54:50.235Z,1010.86
2018-01-14T06:55:30.657Z,1010.8
2018-01-14T06:56:11.043Z,1010.78
2018-01-14T06:56:51.428Z,1010.84
2018-01-14T06:57:31.851Z,1010.81
2018-01-14T06:58:12.228Z,1010.76
2018-01-14T06:58:53.051Z,1010.78
2018-01-14T06:59:33.248Z,1010.8
2018-01-14T07:00:13.637Z,1010.79
2018-01-14T07:00:54.025Z,1010.79
2018-01-14T07:01:34.435Z,1010.84
2018-01-14T07:02:14.924Z,1010.73
2018-01-14T07:02:55.297Z,1010.84
2018-01-14T07:03:35.716Z,1010.79
2018-01-14T07:04:16.117Z,1010.79
2018-01-14T07:04:56.540Z,1010.83
2018-01-14T07:05:36.990Z,1010.8
2018-01-14T07:06:17.387Z,1010.9
2018-01-14T07:06:57.793Z,1010.86
2018-01-14T07:07:38.289Z,1010.84
2018-01-14T07:08:18.608Z,1010.87
2018-01-14T07:08:59.097Z,1010.86
2018-01-14T07:09:40.194Z,1010.82
2018-01-14T07:10:20.592Z,1010.82
2018-01-14T07:11:01.004Z,1010.91
2018-01-14T07:11:41.415Z,1010.88
2018-01-14T07:12:21.882Z,1010.86
2018-01-14T07:13:02.472Z,1010.9
2018-01-14T07:16:56.763Z,1010.85
2018-01-14T07:17:36.231Z,1010.87
2018-01-14T07:18:16.650Z,1010.82
2018-01-14T07:18:57.046Z,1010.85
2018-01-14T07:19:37.438Z,1010.92
2018-01-14T07:20:17.832Z,1010.87
2018-01-14T07:20:59.197Z,1010.88
2018-01-14T07:21:39.746Z,1010.93
2018-01-14T07:22:20.020Z,1010.9
2018-01-14T07:23:00.492Z,1010.95
2018-01-14T07:23:40.872Z,1010.88
2018-01-14T07:24:21.449Z,1011
2018-01-14T07:25:01.820Z,1010.98
2018-01-14T07:25:42.164Z,1010.95
2018-01-14T07:26:22.829Z,1011.07
2018-01-14T07:27:03.214Z,1011.04
2018-01-14T07:27:43.732Z,1010.9
2018-01-14T07:28:25.282Z,1010.98
2018-01-14T07:29:05.703Z,1010.96
2018-01-14T07:29:46.057Z,1010.92
2018-01-14T07:30:26.464Z,1010.95
2018-01-14T07:31:06.877Z,1011.06
2018-01-14T07:31:47.330Z,1010.92
2018-01-14T07:32:28.008Z,1010.85
2018-01-14T07:33:08.416Z,1010.95
2018-01-14T07:33:48.813Z,1010.92
2018-01-14T07:34:29.238Z,1011
2018-01-14T07:35:09.645Z,1010.87
2018-01-14T07:35:50.045Z,1010.94
2018-01-14T07:36:30.466Z,1010.94
2018-01-14T07:37:11.025Z,1010.9
2018-01-14T07:37:51.379Z,1011.01
2018-01-14T07:38:31.825Z,1010.97
2018-01-14T07:39:12.218Z,1010.9
2018-01-14T07:39:52.624Z,1010.9
2018-01-14T07:40:33.050Z,1010.88
2018-01-14T07:41:13.456Z,1010.9
2018-01-14T07:41:53.801Z,1010.86
2018-01-14T07:42:34.236Z,1010.84
2018-01-14T07:43:14.668Z,1010.93
2018-01-14T07:43:55.086Z,1010.96
2018-01-14T07:44:35.511Z,1010.91
2018-01-14T07:45:15.880Z,1010.91
2018-01-14T07:45:56.265Z,1010.9
2018-01-14T07:46:36.764Z,1010.87
2018-01-14T07:47:17.062Z,1010.93
2018-01-14T07:47:57.490Z,1010.99
2018-01-14T07:48:37.926Z,1010.93
2018-01-14T07:49:18.424Z,1010.91
2018-01-14T07:49:58.741Z,1010.95
2018-01-14T07:50:39.270Z,1011
2018-01-14T07:51:19.565Z,1010.94
2018-01-14T07:51:59.991Z,1010.96
2018-01-14T07:52:40.385Z,1011.03
2018-01-14T07:53:20.933Z,1011.05
2018-01-14T07:54:01.297Z,1010.99
2018-01-14T07:54:41.697Z,1011.01
2018-01-14T07:55:22.082Z,1010.95
2018-01-14T07:56:02.504Z,1011.02
2018-01-14T07:56:42.934Z,1011.02
2018-01-14T07:57:23.304Z,1011.04
2018-01-14T07:58:03.666Z,1011.11
2018-01-14T07:58:44.309Z,1011.07
2018-01-14T07:59:24.695Z,1011.06
2018-01-14T08:00:05.102Z,1011.05
2018-01-14T08:00:45.499Z,1011.08
2018-01-14T08:01:25.908Z,1011.08
2018-01-14T08:02:06.325Z,1011.12
2018-01-14T08:02:46.688Z,1011.1
2018-01-14T08:03:27.167Z,1011.16
2018-01-14T08:04:07.500Z,1011.15
2018-01-14T08:04:47.937Z,1011.17
2018-01-14T08:05:28.903Z,1011.08
2018-01-14T08:06:09.377Z,1011.07
2018-01-14T08:06:49.776Z,1011.21
2018-01-14T08:07:30.417Z,1011.31
2018-01-14T08:08:10.848Z,1011.17
2018-01-14T08:10:38.602Z,1011.09
2018-01-14T08:11:30.896Z,1011.17
2018-01-14T08:12:26.809Z,1011.14
2018-01-14T08:13:23.718Z,1011.13
2018-01-14T08:14:16.933Z,1011.22
2018-01-14T08:15:09.197Z,1011.21
2018-01-14T08:16:01.832Z,1011.21
2018-01-14T08:16:54.276Z,1011.25
2018-01-14T08:17:46.500Z,1011.31
2018-01-14T08:18:35.329Z,1011.17
2018-01-14T08:19:16.186Z,1011.24
2018-01-14T08:19:56.667Z,1011.23
2018-01-14T08:20:37.423Z,1011.21
2018-01-14T08:21:18.081Z,1011.17
2018-01-14T08:22:00.105Z,1011.18
2018-01-14T08:22:40.474Z,1011.25
2018-01-14T08:23:21.408Z,1011.23
2018-01-14T08:24:01.888Z,1011.28
2018-01-14T08:24:44.697Z,1011.26
2018-01-14T08:25:25.829Z,1011.39
2018-01-14T08:26:06.318Z,1011.26
2018-01-14T08:26:47.948Z,1011.28
2018-01-14T08:27:28.182Z,1011.31
2018-01-14T08:28:08.732Z,1011.23
2018-01-14T08:28:51.107Z,1011.32
2018-01-14T08:29:31.671Z,1011.22
2018-01-14T08:30:11.903Z,1011.36
2018-01-14T08:30:52.252Z,1011.26
2018-01-14T08:31:35.661Z,1011.33
2018-01-14T08:32:17.990Z,1011.24
2018-01-14T08:33:01.950Z,1011.42
2018-01-14T08:33:42.344Z,1011.32
2018-01-14T08:34:23.127Z,1011.24
2018-01-14T08:35:05.101Z,1011.16
2018-01-14T08:35:45.634Z,1011.2
2018-01-14T08:36:28.724Z,1011.24
2018-01-14T08:37:09.937Z,1011.06
2018-01-14T08:37:50.550Z,1011.25
2018-01-14T08:38:30.889Z,1011.38
2018-01-14T08:39:12.369Z,1011.31
2018-01-14T08:39:53.033Z,1011.26
2018-01-14T08:40:33.377Z,1011.25
2018-01-14T08:41:14.077Z,1011.32
2018-01-14T08:41:54.241Z,1011.28
2018-01-14T08:42:35.418Z,1011.28
2018-01-14T08:43:16.370Z,1011.24
2018-01-14T08:43:57.701Z,1011.21
2018-01-14T08:44:37.968Z,1011.19
2018-01-14T08:45:18.425Z,1011.28
2018-01-14T08:45:58.797Z,1011.22
2018-01-14T08:46:39.657Z,1011.24
2018-01-14T08:47:21.754Z,1011.27
2018-01-14T08:48:02.152Z,1011.3
2018-01-14T08:48:43.152Z,1011.22
2018-01-14T08:49:23.338Z,1011.19
2018-01-14T08:50:04.556Z,1011.23
2018-01-14T08:50:46.879Z,1011.5
2018-01-14T08:51:27.983Z,1011.28
2018-01-14T08:52:09.168Z,1011.3
2018-01-14T08:52:49.514Z,1011.3
2018-01-14T08:53:30.839Z,1011.32
2018-01-14T08:54:11.296Z,1011.22
2018-01-14T08:54:51.703Z,1011.2
2018-01-14T08:55:32.027Z,1011.26
2018-01-14T08:56:13.177Z,1010.99
2018-01-14T08:56:53.651Z,1011.22
2018-01-14T08:57:34.284Z,1011.29
2018-01-14T08:58:15.451Z,1011.17
2018-01-14T08:58:58.034Z,1011.18
2018-01-14T08:59:39.139Z,1011.47
2018-01-14T09:00:19.977Z,1011.32
2018-01-14T09:01:01.322Z,1011.38
2018-01-14T09:01:41.702Z,1011.33
2018-01-14T09:02:22.087Z,1011.27
2018-01-14T09:03:02.541Z,1011.33
2018-01-14T09:03:43.585Z,1011.29
2018-01-14T09:04:24.598Z,1011.28
2018-01-14T09:05:04.762Z,1011.34
2018-01-14T09:05:45.168Z,1011.37
2018-01-14T09:06:25.730Z,1011.35
2018-01-14T09:07:06.113Z,1011.38
2018-01-14T09:07:46.882Z,1011.32
2018-01-14T09:08:27.139Z,1011.37
2018-01-14T09:09:07.770Z,1011.31
2018-01-14T09:09:48.168Z,1011.32
2018-01-14T09:10:28.525Z,1011.39
2018-01-14T09:11:09.122Z,1011.34
2018-01-14T09:11:49.527Z,1011.36
2018-01-14T09:12:29.877Z,1011.36
2018-01-14T09:13:10.363Z,1011.42
2018-01-14T09:13:50.949Z,1011.42
2018-01-14T09:14:31.436Z,1011.37
2018-01-14T09:15:11.730Z,1011.45
2018-01-14T09:15:52.599Z,1011.45
2018-01-14T09:16:33.501Z,1011.47
2018-01-14T09:17:14.196Z,1011.41
2018-01-14T09:17:54.452Z,1011.43
2018-01-14T09:18:34.768Z,1011.39
2018-01-14T09:19:15.542Z,1011.35
2018-01-14T09:19:56.369Z,1011.4
2018-01-14T09:20:36.176Z,1011.53